sensor_id;sensor_type;location;lat;lon;timestamp;temperature;humidity
23124;DHT22;11731;48.592;8.858;2023-02-28T00:02:26;-0.40;93.10
23124;DHT22;11731;48.592;8.858;2023-02-28T00:04:53;-0.50;93.20
23124;DHT22;11731;48.592;8.858;2023-02-28T00:07:26;-0.50;93.40
23124;DHT22;11731;48.592;8.858;2023-02-28T00:09:53;-0.40;93.30
23124;DHT22;11731;48.592;8.858;2023-02-28T00:12:20;-0.50;93.40
23124;DHT22;11731;48.592;8.858;2023-02-28T00:14:47;-0.60;93.70
23124;DHT22;11731;48.592;8.858;2023-02-28T00:17:14;-0.60;93.70
23124;DHT22;11731;48.592;8.858;2023-02-28T00:19:43;-0.80;94.00
23124;DHT22;11731;48.592;8.858;2023-02-28T00:22:10;-0.70;93.90
23124;DHT22;11731;48.592;8.858;2023-02-28T00:24:37;-0.50;93.70
23124;DHT22;11731;48.592;8.858;2023-02-28T00:27:03;-0.80;94.10
23124;DHT22;11731;48.592;8.858;2023-02-28T00:29:30;-0.40;93.80
23124;DHT22;11731;48.592;8.858;2023-02-28T00:31:57;-0.30;93.50
23124;DHT22;11731;48.592;8.858;2023-02-28T00:34:24;-0.30;93.60
23124;DHT22;11731;48.592;8.858;2023-02-28T00:36:52;-0.30;93.60
23124;DHT22;11731;48.592;8.858;2023-02-28T00:39:21;-0.30;93.80
23124;DHT22;11731;48.592;8.858;2023-02-28T00:41:48;-0.60;94.10
23124;DHT22;11731;48.592;8.858;2023-02-28T00:44:15;-1.00;94.60
23124;DHT22;11731;48.592;8.858;2023-02-28T00:46:42;-1.20;95.00
23124;DHT22;11731;48.592;8.858;2023-02-28T00:49:08;-1.20;95.00
23124;DHT22;11731;48.592;8.858;2023-02-28T00:51:35;-1.30;95.20
23124;DHT22;11731;48.592;8.858;2023-02-28T00:54:03;-1.20;95.50
23124;DHT22;11731;48.592;8.858;2023-02-28T00:56:30;-1.10;95.30
23124;DHT22;11731;48.592;8.858;2023-02-28T00:58:57;-1.00;95.10
23124;DHT22;11731;48.592;8.858;2023-02-28T01:01:24;-1.10;95.10
23124;DHT22;11731;48.592;8.858;2023-02-28T01:03:51;-1.10;95.30
23124;DHT22;11731;48.592;8.858;2023-02-28T01:06:18;-1.10;95.40
23124;DHT22;11731;48.592;8.858;2023-02-28T01:08:45;-1.30;95.50
23124;DHT22;11731;48.592;8.858;2023-02-28T01:11:15;-1.40;96.20
23124;DHT22;11731;48.592;8.858;2023-02-28T01:13:43;-1.50;96.40
23124;DHT22;11731;48.592;8.858;2023-02-28T01:16:11;-1.20;96.00
23124;DHT22;11731;48.592;8.858;2023-02-28T01:18:39;-1.50;96.50
23124;DHT22;11731;48.592;8.858;2023-02-28T01:21:06;-1.50;96.60
23124;DHT22;11731;48.592;8.858;2023-02-28T01:23:34;-1.50;96.40
23124;DHT22;11731;48.592;8.858;2023-02-28T01:26:04;-1.60;96.40
23124;DHT22;11731;48.592;8.858;2023-02-28T01:28:33;-1.70;97.00
23124;DHT22;11731;48.592;8.858;2023-02-28T01:31:00;-1.90;97.20
23124;DHT22;11731;48.592;8.858;2023-02-28T01:33:27;-1.80;97.10
23124;DHT22;11731;48.592;8.858;2023-02-28T01:35:57;-1.80;97.00
23124;DHT22;11731;48.592;8.858;2023-02-28T01:38:24;-1.90;97.10
23124;DHT22;11731;48.592;8.858;2023-02-28T01:40:52;-1.90;97.20
23124;DHT22;11731;48.592;8.858;2023-02-28T01:43:23;-1.70;97.10
23124;DHT22;11731;48.592;8.858;2023-02-28T01:45:52;-1.70;97.00
23124;DHT22;11731;48.592;8.858;2023-02-28T01:48:21;-1.70;97.00
23124;DHT22;11731;48.592;8.858;2023-02-28T01:50:51;-1.80;97.10
23124;DHT22;11731;48.592;8.858;2023-02-28T01:53:23;-1.70;97.50
23124;DHT22;11731;48.592;8.858;2023-02-28T01:55:52;-1.70;97.00
23124;DHT22;11731;48.592;8.858;2023-02-28T01:58:21;-1.70;97.10
23124;DHT22;11731;48.592;8.858;2023-02-28T02:00:48;-1.40;97.00
23124;DHT22;11731;48.592;8.858;2023-02-28T02:03:18;-1.50;97.00
23124;DHT22;11731;48.592;8.858;2023-02-28T02:05:46;-1.60;97.40
23124;DHT22;11731;48.592;8.858;2023-02-28T02:08:17;-1.70;97.40
23124;DHT22;11731;48.592;8.858;2023-02-28T02:10:46;-1.80;97.70
23124;DHT22;11731;48.592;8.858;2023-02-28T02:13:42;-1.80;97.60
23124;DHT22;11731;48.592;8.858;2023-02-28T02:16:23;-1.80;97.90
23124;DHT22;11731;48.592;8.858;2023-02-28T02:18:59;-1.90;98.40
23124;DHT22;11731;48.592;8.858;2023-02-28T02:22:05;-1.80;97.90
23124;DHT22;11731;48.592;8.858;2023-02-28T02:24:49;-1.70;97.90
23124;DHT22;11731;48.592;8.858;2023-02-28T02:27:28;-1.60;97.90
23124;DHT22;11731;48.592;8.858;2023-02-28T02:30:21;-1.70;98.00
23124;DHT22;11731;48.592;8.858;2023-02-28T02:33:16;-1.90;98.20
23124;DHT22;11731;48.592;8.858;2023-02-28T02:35:53;-1.90;98.40
23124;DHT22;11731;48.592;8.858;2023-02-28T02:38:30;-1.90;98.70
23124;DHT22;11731;48.592;8.858;2023-02-28T02:41:08;-1.90;98.80
23124;DHT22;11731;48.592;8.858;2023-02-28T02:43:43;-1.90;98.80
23124;DHT22;11731;48.592;8.858;2023-02-28T02:46:15;-1.80;98.70
23124;DHT22;11731;48.592;8.858;2023-02-28T02:48:43;-1.80;98.60
23124;DHT22;11731;48.592;8.858;2023-02-28T02:51:15;-1.80;98.90
23124;DHT22;11731;48.592;8.858;2023-02-28T02:53:46;-1.80;98.90
23124;DHT22;11731;48.592;8.858;2023-02-28T02:56:17;-1.70;99.10
23124;DHT22;11731;48.592;8.858;2023-02-28T02:58:47;-1.80;99.00
23124;DHT22;11731;48.592;8.858;2023-02-28T03:01:18;-1.70;99.20
23124;DHT22;11731;48.592;8.858;2023-02-28T03:03:56;-1.60;99.10
23124;DHT22;11731;48.592;8.858;2023-02-28T03:06:25;-1.60;99.10
23124;DHT22;11731;48.592;8.858;2023-02-28T03:08:52;-1.60;99.00
23124;DHT22;11731;48.592;8.858;2023-02-28T03:11:19;-1.70;99.10
23124;DHT22;11731;48.592;8.858;2023-02-28T03:20:13;-1.30;99.30
23124;DHT22;11731;48.592;8.858;2023-02-28T03:22:56;-1.30;99.30
23124;DHT22;11731;48.592;8.858;2023-02-28T03:25:32;-1.50;99.40
23124;DHT22;11731;48.592;8.858;2023-02-28T03:28:08;-1.60;99.50
23124;DHT22;11731;48.592;8.858;2023-02-28T03:30:43;-1.50;99.80
23124;DHT22;11731;48.592;8.858;2023-02-28T03:33:15;-1.60;99.50
23124;DHT22;11731;48.592;8.858;2023-02-28T03:35:45;-1.30;99.60
23124;DHT22;11731;48.592;8.858;2023-02-28T03:38:18;-1.30;99.20
23124;DHT22;11731;48.592;8.858;2023-02-28T03:40:49;-1.30;99.70
23124;DHT22;11731;48.592;8.858;2023-02-28T03:43:22;-1.10;99.30
23124;DHT22;11731;48.592;8.858;2023-02-28T03:45:52;-1.30;99.30
23124;DHT22;11731;48.592;8.858;2023-02-28T03:48:27;-1.40;99.60
23124;DHT22;11731;48.592;8.858;2023-02-28T03:50:58;-1.40;99.90
23124;DHT22;11731;48.592;8.858;2023-02-28T03:53:30;-1.20;99.70
23124;DHT22;11731;48.592;8.858;2023-02-28T03:56:01;-0.90;99.40
23124;DHT22;11731;48.592;8.858;2023-02-28T03:58:33;-0.70;99.20
23124;DHT22;11731;48.592;8.858;2023-02-28T04:01:05;-0.90;99.30
23124;DHT22;11731;48.592;8.858;2023-02-28T04:03:36;-1.10;99.60
23124;DHT22;11731;48.592;8.858;2023-02-28T04:06:04;-0.90;99.50
23124;DHT22;11731;48.592;8.858;2023-02-28T04:08:33;-0.90;99.50
23124;DHT22;11731;48.592;8.858;2023-02-28T04:11:03;-0.80;99.70
23124;DHT22;11731;48.592;8.858;2023-02-28T04:13:31;-0.90;99.60
23124;DHT22;11731;48.592;8.858;2023-02-28T04:15:58;-1.10;99.90
23124;DHT22;11731;48.592;8.858;2023-02-28T04:18:25;-0.80;99.60
23124;DHT22;11731;48.592;8.858;2023-02-28T04:20:52;-0.90;99.80
23124;DHT22;11731;48.592;8.858;2023-02-28T04:23:18;-0.90;99.90
23124;DHT22;11731;48.592;8.858;2023-02-28T04:25:47;-0.70;99.60
23124;DHT22;11731;48.592;8.858;2023-02-28T04:28:15;-0.80;99.70
23124;DHT22;11731;48.592;8.858;2023-02-28T04:30:41;-1.00;99.80
23124;DHT22;11731;48.592;8.858;2023-02-28T04:33:08;-0.90;99.90
23124;DHT22;11731;48.592;8.858;2023-02-28T04:35:35;-0.90;99.90
23124;DHT22;11731;48.592;8.858;2023-02-28T04:38:02;-1.10;99.90
23124;DHT22;11731;48.592;8.858;2023-02-28T04:40:29;-1.00;99.90
23124;DHT22;11731;48.592;8.858;2023-02-28T04:42:57;-0.90;99.90
23124;DHT22;11731;48.592;8.858;2023-02-28T04:45:24;-0.70;99.90
23124;DHT22;11731;48.592;8.858;2023-02-28T04:47:51;-0.80;99.90
23124;DHT22;11731;48.592;8.858;2023-02-28T04:50:19;-0.80;99.90
23124;DHT22;11731;48.592;8.858;2023-02-28T04:52:45;-0.80;99.90
23124;DHT22;11731;48.592;8.858;2023-02-28T04:55:12;-1.00;99.90
23124;DHT22;11731;48.592;8.858;2023-02-28T04:57:39;-1.00;99.90
23124;DHT22;11731;48.592;8.858;2023-02-28T05:00:13;-0.60;99.90
23124;DHT22;11731;48.592;8.858;2023-02-28T05:02:42;-0.50;99.90
23124;DHT22;11731;48.592;8.858;2023-02-28T05:05:09;-0.70;99.90
23124;DHT22;11731;48.592;8.858;2023-02-28T05:07:35;-0.80;99.90
23124;DHT22;11731;48.592;8.858;2023-02-28T05:10:03;-0.60;99.90
23124;DHT22;11731;48.592;8.858;2023-02-28T05:12:29;-0.50;99.90
23124;DHT22;11731;48.592;8.858;2023-02-28T05:14:56;-0.40;99.90
23124;DHT22;11731;48.592;8.858;2023-02-28T05:17:25;-0.10;99.80
23124;DHT22;11731;48.592;8.858;2023-02-28T05:19:51;-0.10;99.80
23124;DHT22;11731;48.592;8.858;2023-02-28T05:22:18;-0.10;99.70
23124;DHT22;11731;48.592;8.858;2023-02-28T05:24:45;-0.20;99.80
23124;DHT22;11731;48.592;8.858;2023-02-28T05:27:12;-0.30;99.90
23124;DHT22;11731;48.592;8.858;2023-02-28T05:29:39;-0.60;99.90
23124;DHT22;11731;48.592;8.858;2023-02-28T05:32:11;-0.70;99.90
23124;DHT22;11731;48.592;8.858;2023-02-28T05:34:40;-0.50;99.90
23124;DHT22;11731;48.592;8.858;2023-02-28T05:37:11;-0.50;99.90
23124;DHT22;11731;48.592;8.858;2023-02-28T05:39:38;-0.30;99.90
23124;DHT22;11731;48.592;8.858;2023-02-28T05:42:05;-0.30;99.90
23124;DHT22;11731;48.592;8.858;2023-02-28T05:44:38;-0.50;99.90
23124;DHT22;11731;48.592;8.858;2023-02-28T05:47:05;-0.30;99.90
23124;DHT22;11731;48.592;8.858;2023-02-28T05:49:32;-0.40;99.90
23124;DHT22;11731;48.592;8.858;2023-02-28T05:52:00;-0.10;99.90
23124;DHT22;11731;48.592;8.858;2023-02-28T05:54:27;-0.30;99.90
23124;DHT22;11731;48.592;8.858;2023-02-28T05:56:54;-0.50;99.90
23124;DHT22;11731;48.592;8.858;2023-02-28T05:59:21;-0.50;99.90
23124;DHT22;11731;48.592;8.858;2023-02-28T06:01:48;-0.40;99.90
23124;DHT22;11731;48.592;8.858;2023-02-28T06:04:17;-0.20;99.90
23124;DHT22;11731;48.592;8.858;2023-02-28T06:06:44;-0.20;99.90
23124;DHT22;11731;48.592;8.858;2023-02-28T06:09:13;-0.30;99.90
23124;DHT22;11731;48.592;8.858;2023-02-28T06:11:40;-0.30;99.90
23124;DHT22;11731;48.592;8.858;2023-02-28T06:14:09;-0.50;99.90
23124;DHT22;11731;48.592;8.858;2023-02-28T06:16:39;-0.30;99.90
23124;DHT22;11731;48.592;8.858;2023-02-28T06:19:29;-0.40;99.90
23124;DHT22;11731;48.592;8.858;2023-02-28T06:21:57;-0.10;99.90
23124;DHT22;11731;48.592;8.858;2023-02-28T06:24:26;-0.10;99.90
23124;DHT22;11731;48.592;8.858;2023-02-28T06:26:54;-0.10;99.90
23124;DHT22;11731;48.592;8.858;2023-02-28T06:29:21;0.10;99.90
23124;DHT22;11731;48.592;8.858;2023-02-28T06:31:48;0.10;99.90
23124;DHT22;11731;48.592;8.858;2023-02-28T06:34:15;-0.10;99.90
23124;DHT22;11731;48.592;8.858;2023-02-28T06:36:43;0.00;99.90
23124;DHT22;11731;48.592;8.858;2023-02-28T06:39:10;-0.10;99.90
23124;DHT22;11731;48.592;8.858;2023-02-28T06:41:38;-0.20;99.90
23124;DHT22;11731;48.592;8.858;2023-02-28T06:44:08;-0.30;99.90
23124;DHT22;11731;48.592;8.858;2023-02-28T06:46:38;-0.30;99.90
23124;DHT22;11731;48.592;8.858;2023-02-28T06:49:05;-0.50;99.90
23124;DHT22;11731;48.592;8.858;2023-02-28T06:51:35;-0.20;99.90
23124;DHT22;11731;48.592;8.858;2023-02-28T06:54:02;0.00;99.90
23124;DHT22;11731;48.592;8.858;2023-02-28T06:56:29;0.10;99.90
23124;DHT22;11731;48.592;8.858;2023-02-28T06:58:57;0.10;99.90
23124;DHT22;11731;48.592;8.858;2023-02-28T07:01:24;0.10;99.90
23124;DHT22;11731;48.592;8.858;2023-02-28T07:03:51;0.10;99.90
23124;DHT22;11731;48.592;8.858;2023-02-28T07:06:19;0.30;99.90
23124;DHT22;11731;48.592;8.858;2023-02-28T07:08:48;0.20;99.90
23124;DHT22;11731;48.592;8.858;2023-02-28T07:11:15;0.30;99.90
23124;DHT22;11731;48.592;8.858;2023-02-28T07:13:42;-0.10;99.90
23124;DHT22;11731;48.592;8.858;2023-02-28T07:16:11;0.30;99.90
23124;DHT22;11731;48.592;8.858;2023-02-28T07:18:38;0.40;99.90
23124;DHT22;11731;48.592;8.858;2023-02-28T07:21:06;0.40;99.90
23124;DHT22;11731;48.592;8.858;2023-02-28T07:23:34;0.30;99.90
23124;DHT22;11731;48.592;8.858;2023-02-28T07:26:04;0.40;99.90
23124;DHT22;11731;48.592;8.858;2023-02-28T07:28:31;0.50;99.90
23124;DHT22;11731;48.592;8.858;2023-02-28T07:31:03;0.70;99.90
23124;DHT22;11731;48.592;8.858;2023-02-28T07:33:32;0.90;99.90
23124;DHT22;11731;48.592;8.858;2023-02-28T07:36:03;0.90;99.80
23124;DHT22;11731;48.592;8.858;2023-02-28T07:38:30;0.80;99.90
23124;DHT22;11731;48.592;8.858;2023-02-28T07:40:57;1.10;99.80
23124;DHT22;11731;48.592;8.858;2023-02-28T07:43:24;1.10;99.20
23124;DHT22;11731;48.592;8.858;2023-02-28T07:45:51;0.90;99.20
23124;DHT22;11731;48.592;8.858;2023-02-28T07:48:18;0.90;99.10
23124;DHT22;11731;48.592;8.858;2023-02-28T07:50:54;1.00;99.50
23124;DHT22;11731;48.592;8.858;2023-02-28T07:53:21;1.10;99.20
23124;DHT22;11731;48.592;8.858;2023-02-28T07:55:48;1.30;98.70
23124;DHT22;11731;48.592;8.858;2023-02-28T07:58:15;1.60;98.40
23124;DHT22;11731;48.592;8.858;2023-02-28T08:00:42;1.60;98.30
23124;DHT22;11731;48.592;8.858;2023-02-28T08:03:11;1.60;97.80
23124;DHT22;11731;48.592;8.858;2023-02-28T08:05:39;1.40;97.80
23124;DHT22;11731;48.592;8.858;2023-02-28T08:08:08;1.40;98.10
23124;DHT22;11731;48.592;8.858;2023-02-28T08:10:35;1.20;98.40
23124;DHT22;11731;48.592;8.858;2023-02-28T08:13:02;1.30;98.20
23124;DHT22;11731;48.592;8.858;2023-02-28T08:15:29;1.40;97.30
23124;DHT22;11731;48.592;8.858;2023-02-28T08:17:56;1.60;97.80
23124;DHT22;11731;48.592;8.858;2023-02-28T08:20:23;1.60;97.60
23124;DHT22;11731;48.592;8.858;2023-02-28T08:22:50;1.60;97.50
23124;DHT22;11731;48.592;8.858;2023-02-28T08:25:19;1.50;97.80
23124;DHT22;11731;48.592;8.858;2023-02-28T08:27:46;1.50;97.70
23124;DHT22;11731;48.592;8.858;2023-02-28T08:30:14;1.40;98.40
23124;DHT22;11731;48.592;8.858;2023-02-28T08:32:41;1.50;98.20
23124;DHT22;11731;48.592;8.858;2023-02-28T08:35:10;1.30;97.70
23124;DHT22;11731;48.592;8.858;2023-02-28T08:37:37;1.30;98.10
23124;DHT22;11731;48.592;8.858;2023-02-28T08:40:05;1.40;97.90
23124;DHT22;11731;48.592;8.858;2023-02-28T08:42:33;1.60;97.50
23124;DHT22;11731;48.592;8.858;2023-02-28T08:45:00;1.60;97.30
23124;DHT22;11731;48.592;8.858;2023-02-28T08:47:27;1.70;97.10
23124;DHT22;11731;48.592;8.858;2023-02-28T08:49:54;1.90;96.90
23124;DHT22;11731;48.592;8.858;2023-02-28T08:52:21;1.90;96.90
23124;DHT22;11731;48.592;8.858;2023-02-28T08:54:48;1.70;97.20
23124;DHT22;11731;48.592;8.858;2023-02-28T08:57:15;2.10;97.10
23124;DHT22;11731;48.592;8.858;2023-02-28T08:59:43;2.10;96.50
23124;DHT22;11731;48.592;8.858;2023-02-28T09:02:12;2.20;96.70
23124;DHT22;11731;48.592;8.858;2023-02-28T09:04:39;2.30;96.50
23124;DHT22;11731;48.592;8.858;2023-02-28T09:07:07;2.50;96.40
23124;DHT22;11731;48.592;8.858;2023-02-28T09:09:34;2.70;96.00
23124;DHT22;11731;48.592;8.858;2023-02-28T09:12:00;2.10;96.00
23124;DHT22;11731;48.592;8.858;2023-02-28T09:14:27;1.80;96.90
23124;DHT22;11731;48.592;8.858;2023-02-28T09:16:56;1.60;96.90
23124;DHT22;11731;48.592;8.858;2023-02-28T09:19:23;1.50;97.00
23124;DHT22;11731;48.592;8.858;2023-02-28T09:21:50;1.80;96.70
23124;DHT22;11731;48.592;8.858;2023-02-28T09:24:17;2.30;96.40
23124;DHT22;11731;48.592;8.858;2023-02-28T09:26:46;2.30;96.40
23124;DHT22;11731;48.592;8.858;2023-02-28T09:29:13;2.30;95.90
23124;DHT22;11731;48.592;8.858;2023-02-28T09:31:40;2.30;96.00
23124;DHT22;11731;48.592;8.858;2023-02-28T09:34:08;2.50;95.90
23124;DHT22;11731;48.592;8.858;2023-02-28T09:36:35;2.90;95.80
23124;DHT22;11731;48.592;8.858;2023-02-28T09:39:03;2.90;95.20
23124;DHT22;11731;48.592;8.858;2023-02-28T09:41:37;2.80;94.90
23124;DHT22;11731;48.592;8.858;2023-02-28T09:44:17;2.60;95.10
23124;DHT22;11731;48.592;8.858;2023-02-28T09:46:49;2.70;95.60
23124;DHT22;11731;48.592;8.858;2023-02-28T09:49:24;2.90;95.30
23124;DHT22;11731;48.592;8.858;2023-02-28T09:51:57;3.00;95.00
23124;DHT22;11731;48.592;8.858;2023-02-28T09:54:28;3.30;94.60
23124;DHT22;11731;48.592;8.858;2023-02-28T09:56:59;3.00;95.30
23124;DHT22;11731;48.592;8.858;2023-02-28T09:59:39;3.10;94.90
23124;DHT22;11731;48.592;8.858;2023-02-28T10:02:18;3.30;94.80
23124;DHT22;11731;48.592;8.858;2023-02-28T10:04:51;3.30;94.50
23124;DHT22;11731;48.592;8.858;2023-02-28T10:07:36;3.30;94.60
23124;DHT22;11731;48.592;8.858;2023-02-28T10:10:19;3.50;94.10
23124;DHT22;11731;48.592;8.858;2023-02-28T10:12:48;3.50;94.20
23124;DHT22;11731;48.592;8.858;2023-02-28T10:15:17;3.00;94.00
23124;DHT22;11731;48.592;8.858;2023-02-28T10:17:51;2.60;95.00
23124;DHT22;11731;48.592;8.858;2023-02-28T10:20:23;2.60;95.10
23124;DHT22;11731;48.592;8.858;2023-02-28T10:23:00;2.90;94.70
23124;DHT22;11731;48.592;8.858;2023-02-28T10:25:34;3.30;94.60
23124;DHT22;11731;48.592;8.858;2023-02-28T10:28:09;3.10;94.50
23124;DHT22;11731;48.592;8.858;2023-02-28T10:30:39;3.30;94.40
23124;DHT22;11731;48.592;8.858;2023-02-28T10:33:14;3.30;94.20
23124;DHT22;11731;48.592;8.858;2023-02-28T10:35:45;3.30;93.70
23124;DHT22;11731;48.592;8.858;2023-02-28T10:38:16;3.50;93.70
23124;DHT22;11731;48.592;8.858;2023-02-28T10:40:43;3.70;94.00
23124;DHT22;11731;48.592;8.858;2023-02-28T10:43:20;4.20;93.30
23124;DHT22;11731;48.592;8.858;2023-02-28T10:45:57;3.80;92.80
23124;DHT22;11731;48.592;8.858;2023-02-28T10:48:32;3.60;93.30
23124;DHT22;11731;48.592;8.858;2023-02-28T10:51:01;3.90;92.70
23124;DHT22;11731;48.592;8.858;2023-02-28T10:53:32;3.70;93.30
23124;DHT22;11731;48.592;8.858;2023-02-28T10:56:01;3.60;93.00
23124;DHT22;11731;48.592;8.858;2023-02-28T10:58:30;3.30;93.60
23124;DHT22;11731;48.592;8.858;2023-02-28T11:00:58;3.10;93.70
23124;DHT22;11731;48.592;8.858;2023-02-28T11:03:31;3.20;93.70
23124;DHT22;11731;48.592;8.858;2023-02-28T11:06:05;3.30;93.50
23124;DHT22;11731;48.592;8.858;2023-02-28T11:08:34;3.50;93.40
23124;DHT22;11731;48.592;8.858;2023-02-28T11:11:04;3.40;92.90
23124;DHT22;11731;48.592;8.858;2023-02-28T11:13:34;3.70;93.20
23124;DHT22;11731;48.592;8.858;2023-02-28T11:16:03;3.60;92.70
23124;DHT22;11731;48.592;8.858;2023-02-28T11:18:37;3.70;92.90
23124;DHT22;11731;48.592;8.858;2023-02-28T11:21:16;3.70;93.00
23124;DHT22;11731;48.592;8.858;2023-02-28T11:23:43;3.80;92.50
23124;DHT22;11731;48.592;8.858;2023-02-28T11:26:11;4.10;92.60
23124;DHT22;11731;48.592;8.858;2023-02-28T11:28:39;4.40;92.00
23124;DHT22;11731;48.592;8.858;2023-02-28T11:31:16;4.70;91.70
23124;DHT22;11731;48.592;8.858;2023-02-28T11:33:46;4.20;91.70
23124;DHT22;11731;48.592;8.858;2023-02-28T11:36:19;3.80;92.40
23124;DHT22;11731;48.592;8.858;2023-02-28T11:38:47;3.60;92.80
23124;DHT22;11731;48.592;8.858;2023-02-28T11:41:43;3.90;92.20
23124;DHT22;11731;48.592;8.858;2023-02-28T11:44:28;4.10;92.40
23124;DHT22;11731;48.592;8.858;2023-02-28T11:46:58;4.10;91.80
23124;DHT22;11731;48.592;8.858;2023-02-28T11:49:33;4.20;92.00
23124;DHT22;11731;48.592;8.858;2023-02-28T11:52:08;4.00;91.90
23124;DHT22;11731;48.592;8.858;2023-02-28T11:54:52;4.10;91.90
23124;DHT22;11731;48.592;8.858;2023-02-28T11:57:35;4.10;92.00
23124;DHT22;11731;48.592;8.858;2023-02-28T12:00:12;4.20;92.20
23124;DHT22;11731;48.592;8.858;2023-02-28T12:02:59;4.40;91.70
23124;DHT22;11731;48.592;8.858;2023-02-28T12:08:47;4.70;91.20
23124;DHT22;11731;48.592;8.858;2023-02-28T12:11:29;4.90;91.10
23124;DHT22;11731;48.592;8.858;2023-02-28T12:14:27;5.20;91.40
23124;DHT22;11731;48.592;8.858;2023-02-28T12:17:15;5.50;90.70
23124;DHT22;11731;48.592;8.858;2023-02-28T12:20:08;5.40;90.40
23124;DHT22;11731;48.592;8.858;2023-02-28T12:22:43;5.00;90.70
23124;DHT22;11731;48.592;8.858;2023-02-28T12:25:46;5.00;91.20
23124;DHT22;11731;48.592;8.858;2023-02-28T12:28:20;5.20;90.90
23124;DHT22;11731;48.592;8.858;2023-02-28T12:30:52;4.80;91.10
23124;DHT22;11731;48.592;8.858;2023-02-28T12:33:26;4.80;91.30
23124;DHT22;11731;48.592;8.858;2023-02-28T12:35:59;4.70;91.00
23124;DHT22;11731;48.592;8.858;2023-02-28T12:38:31;5.00;91.10
23124;DHT22;11731;48.592;8.858;2023-02-28T12:41:13;5.50;90.60
23124;DHT22;11731;48.592;8.858;2023-02-28T12:43:43;5.70;90.40
23124;DHT22;11731;48.592;8.858;2023-02-28T12:46:17;5.80;90.10
23124;DHT22;11731;48.592;8.858;2023-02-28T12:51:56;5.40;90.00
23124;DHT22;11731;48.592;8.858;2023-02-28T12:57:33;4.80;90.90
23124;DHT22;11731;48.592;8.858;2023-02-28T13:00:08;4.70;91.20
23124;DHT22;11731;48.592;8.858;2023-02-28T13:02:55;4.80;90.90
23124;DHT22;11731;48.592;8.858;2023-02-28T13:05:36;4.90;91.10
23124;DHT22;11731;48.592;8.858;2023-02-28T13:08:31;4.90;90.70
23124;DHT22;11731;48.592;8.858;2023-02-28T13:14:40;4.80;90.90
23124;DHT22;11731;48.592;8.858;2023-02-28T13:17:11;5.30;90.90
23124;DHT22;11731;48.592;8.858;2023-02-28T13:19:42;5.30;90.30
23124;DHT22;11731;48.592;8.858;2023-02-28T13:22:17;4.80;90.70
23124;DHT22;11731;48.592;8.858;2023-02-28T13:24:47;4.70;91.10
23124;DHT22;11731;48.592;8.858;2023-02-28T13:27:33;4.70;91.30
23124;DHT22;11731;48.592;8.858;2023-02-28T13:33:26;4.60;91.90
23124;DHT22;11731;48.592;8.858;2023-02-28T13:36:09;4.60;92.00
23124;DHT22;11731;48.592;8.858;2023-02-28T13:39:01;4.80;91.90
23124;DHT22;11731;48.592;8.858;2023-02-28T13:41:47;5.30;91.20
23124;DHT22;11731;48.592;8.858;2023-02-28T13:44:16;5.70;90.70
23124;DHT22;11731;48.592;8.858;2023-02-28T13:47:22;5.90;90.60
23124;DHT22;11731;48.592;8.858;2023-02-28T13:49:51;5.40;90.20
23124;DHT22;11731;48.592;8.858;2023-02-28T13:52:21;5.40;90.90
23124;DHT22;11731;48.592;8.858;2023-02-28T13:55:01;5.60;90.70
23124;DHT22;11731;48.592;8.858;2023-02-28T14:01:07;6.50;89.90
23124;DHT22;11731;48.592;8.858;2023-02-28T14:03:48;6.70;88.60
23124;DHT22;11731;48.592;8.858;2023-02-28T14:06:26;5.90;89.70
23124;DHT22;11731;48.592;8.858;2023-02-28T14:08:58;5.70;90.20
23124;DHT22;11731;48.592;8.858;2023-02-28T14:11:31;5.60;90.30
23124;DHT22;11731;48.592;8.858;2023-02-28T14:14:01;5.50;90.40
23124;DHT22;11731;48.592;8.858;2023-02-28T14:16:36;5.80;90.10
23124;DHT22;11731;48.592;8.858;2023-02-28T14:19:11;5.90;90.10
23124;DHT22;11731;48.592;8.858;2023-02-28T14:21:46;5.70;90.30
23124;DHT22;11731;48.592;8.858;2023-02-28T14:24:49;6.00;90.20
23124;DHT22;11731;48.592;8.858;2023-02-28T14:27:31;6.20;90.20
23124;DHT22;11731;48.592;8.858;2023-02-28T14:33:23;6.40;88.40
23124;DHT22;11731;48.592;8.858;2023-02-28T14:36:09;5.70;89.60
23124;DHT22;11731;48.592;8.858;2023-02-28T14:38:41;5.50;90.30
23124;DHT22;11731;48.592;8.858;2023-02-28T14:41:19;5.30;90.70
23124;DHT22;11731;48.592;8.858;2023-02-28T14:43:53;5.20;91.10
23124;DHT22;11731;48.592;8.858;2023-02-28T14:48:56;5.50;90.80
23124;DHT22;11731;48.592;8.858;2023-02-28T14:50:06;5.70;90.00
23124;DHT22;11731;48.592;8.858;2023-02-28T14:52:35;6.30;90.00
23124;DHT22;11731;48.592;8.858;2023-02-28T14:55:05;6.10;89.30
23124;DHT22;11731;48.592;8.858;2023-02-28T14:57:40;5.80;90.10
23124;DHT22;11731;48.592;8.858;2023-02-28T15:00:14;5.90;90.10
23124;DHT22;11731;48.592;8.858;2023-02-28T15:02:43;5.90;89.90
23124;DHT22;11731;48.592;8.858;2023-02-28T15:05:27;5.70;89.90
23124;DHT22;11731;48.592;8.858;2023-02-28T15:08:12;5.60;90.20
23124;DHT22;11731;48.592;8.858;2023-02-28T15:10:42;5.60;90.40
23124;DHT22;11731;48.592;8.858;2023-02-28T15:13:13;5.90;90.20
23124;DHT22;11731;48.592;8.858;2023-02-28T15:15:46;6.10;89.90
23124;DHT22;11731;48.592;8.858;2023-02-28T15:18:23;6.20;89.10
23124;DHT22;11731;48.592;8.858;2023-02-28T15:20:55;6.00;90.20
23124;DHT22;11731;48.592;8.858;2023-02-28T15:23:23;5.80;89.70
23124;DHT22;11731;48.592;8.858;2023-02-28T15:25:53;6.10;89.20
23124;DHT22;11731;48.592;8.858;2023-02-28T15:28:22;6.30;89.20
23124;DHT22;11731;48.592;8.858;2023-02-28T15:30:58;6.30;89.10
23124;DHT22;11731;48.592;8.858;2023-02-28T15:33:54;6.40;88.80
23124;DHT22;11731;48.592;8.858;2023-02-28T15:36:48;5.80;88.70
23124;DHT22;11731;48.592;8.858;2023-02-28T15:39:19;5.60;89.40
23124;DHT22;11731;48.592;8.858;2023-02-28T15:41:47;5.60;90.20
23124;DHT22;11731;48.592;8.858;2023-02-28T15:44:23;5.60;90.30
23124;DHT22;11731;48.592;8.858;2023-02-28T15:47:00;5.90;90.00
23124;DHT22;11731;48.592;8.858;2023-02-28T15:49:32;6.00;89.40
23124;DHT22;11731;48.592;8.858;2023-02-28T15:55:34;5.80;90.20
23124;DHT22;11731;48.592;8.858;2023-02-28T15:58:21;5.70;90.10
23124;DHT22;11731;48.592;8.858;2023-02-28T16:01:03;6.00;89.90
23124;DHT22;11731;48.592;8.858;2023-02-28T16:03:42;5.80;90.10
23124;DHT22;11731;48.592;8.858;2023-02-28T16:06:34;5.90;90.40
23124;DHT22;11731;48.592;8.858;2023-02-28T16:09:06;6.20;90.00
23124;DHT22;11731;48.592;8.858;2023-02-28T16:11:38;6.40;88.70
23124;DHT22;11731;48.592;8.858;2023-02-28T16:14:08;6.10;89.40
23124;DHT22;11731;48.592;8.858;2023-02-28T16:16:42;6.00;89.50
23124;DHT22;11731;48.592;8.858;2023-02-28T16:19:21;6.10;89.90
23124;DHT22;11731;48.592;8.858;2023-02-28T16:21:48;6.10;89.50
23124;DHT22;11731;48.592;8.858;2023-02-28T16:24:15;5.90;89.60
23124;DHT22;11731;48.592;8.858;2023-02-28T16:26:48;5.90;90.20
23124;DHT22;11731;48.592;8.858;2023-02-28T16:29:22;5.90;90.20
23124;DHT22;11731;48.592;8.858;2023-02-28T16:31:56;6.10;90.00
23124;DHT22;11731;48.592;8.858;2023-02-28T16:34:29;5.80;89.90
23124;DHT22;11731;48.592;8.858;2023-02-28T16:36:56;5.50;90.50
23124;DHT22;11731;48.592;8.858;2023-02-28T16:39:24;5.60;90.30
23124;DHT22;11731;48.592;8.858;2023-02-28T16:45:23;5.50;90.40
23124;DHT22;11731;48.592;8.858;2023-02-28T16:51:11;5.30;90.80